Terminal Aerodrome Forecast
Issued by NWS Upton, NY

Home | Current Version | Previous Version | Text Only | Print | Product List | Glossary On
Versions: 1 2 3 4 5 6 7 8 9 10 11 12 13 14 15 16 17 18 19 20 21 22 23 24 25 26 27 28 29 30 31 32
000
FTUS41 KOKX 232300
TAFLGA
TAF
KLGA 232340Z 2400/2424 18006KT P6SM SCT250
     FM240200 VRB05KT P6SM SCT250
     FM240800 05006KT P6SM SCT025 SCT100 SCT250
     FM241300 07011G17KT P6SM SCT025 SCT080 BKN200
     FM242100 11014G19KT P6SM SCT015 SCT025 BKN080=

USA.gov is the U.S. government's official web portal to all federal, state and local government web resources and services.